الصفحة الرئيسية
METAR-TAF:

METAR-TAF

مطار :

Gove Peninsula, أستراليا

دائرة عرض: 12-16-12S, خط طول: 136-49-06E, ارتفاع: 62 متر

مراقبة الطقس الحالي

تاريخ ووقت الإصدار 18 دقيقة قبل الساعة 15:30UTC
ريح 4 عقدة من الجنوب/الجنوب الغربي
درجة الحرارة 25°درجة مئوية
الرطوبة 89%
ضغط 1011 hPa
الرؤية 10 كم أو أكثر

METAR: YPGV 111530Z AUTO 20004KT 9999 // NCD 25/23 Q1011 RF00.0/000.0

زمن: 01:18 (15:48 UTC)

توقعات

تاريخ ووقت الإصدار 3ساعات و 37 دقيقة قبل الساعة 12:11UTC
التوقعات صالحة من11 الساعة 14 UTC إلى 12 الساعة 02 UTC
ريح 5 عقدة من الجنوب الشرقي
الرؤية 10 كم أو أكثر
غيوم متفرقة على ارتفاع 1000 قدم
من 12 الساعة 0000 UTC
ريح 10 عقدة من الجنوب/الجنوب الشرقي
الرؤية 10 كم أو أكثر
غيوم متفرقة على ارتفاع 3000 قدم

TAF: YPGV 111211Z 1114/1202 13005KT 9999 SCT010 FM120000 15010KT 9999 SCT030

أرصاد الطقس والتوقعات من أكثر من 4000 مطار (تقارير الطقس للمطار METAR والتنبؤ بالطقس بالمطارTAF).

المحطات المتاحة هي النقط الصفراء والحمراء على الخريطة.

حرك المؤشر فوق النقطة لمعرفة اسم المحطة.

ثم انقر لمعرفة أرصاد وتوقعات الطقس.

لتغيير الخارطة: اضغط على الأزرار الخضراء مع رمز الصليب الأسود للتكبير. على الزر الأخضر مع شرطة للتصغير، أو على الأسهم الخضراء للخرائط المجاورة.


METAR-TAF: